^^
Datos históricos de la estación: Murcia-Puente Tocinos
Diario Informe para Enero 31, 2019 Unidades:  Ambas    Ingés   Métrico
Diario Semanal Mensual Anual
  Máxima: Mínima: Promedio:
Temperatura: 77.9 °F /  25.5 °C 60.3 °F /  15.7 °C 68.9 °F /  20.5 °C
Punto de rocio: 54.9 °F /  12.7 °C 47.1 °F /  8.4 °C 51.4 °F /  10.8 °C
Humedad: 77% 35.9% 56%
Velocidad viento: 13mph /  20.9km/h - 5.4mph /  8.7km/h
Racha viento: 24.2mph /  38.9km/h - -
Viento- - ESE
Presión: 30.2 in /  1024.1 hPa 30.1 in /  1020.6 hPa -
Precipitación: 0 in /  0.0 mm    
 
 
Tabla de datos para Enero 31, 2019
Hora Temperatura Punto de rocio Presión Viento Velocidad viento Racha viento Humedad Intensidad lluvia(por hora) Nubes
00:04 64.2 °F /  17.9 °C 54.7 °F /  12.6 °C 30.2in /  1024.0hPa NE 4mph /  6.5km/h 7mph /  11.3km/h 71% 0in /  0.0mm
00:09 64.2 °F /  17.9 °C 54.7 °F /  12.6 °C 30.2in /  1024.0hPa NE 4.1mph /  6.6km/h 7mph /  11.3km/h 71% 0in /  0.0mm
00:14 64.2 °F /  17.9 °C 54.7 °F /  12.6 °C 30.2in /  1024.0hPa NE 4.3mph /  6.9km/h 6mph /  9.7km/h 71% 0in /  0.0mm
00:19 64.2 °F /  17.9 °C 54.7 °F /  12.6 °C 30.2in /  1024.0hPa NNE 4.2mph /  6.8km/h 6mph /  9.7km/h 71% 0in /  0.0mm
00:24 64.4 °F /  18 °C 54.7 °F /  12.6 °C 30.2in /  1024.0hPa NE 4mph /  6.5km/h 6.2mph /  10km/h 71% 0in /  0.0mm
00:29 64.2 °F /  17.9 °C 54.7 °F /  12.6 °C 30.2in /  1024.0hPa NE 3.7mph /  5.9km/h 6mph /  9.7km/h 71% 0in /  0.0mm
00:34 64.2 °F /  17.9 °C 54.7 °F /  12.6 °C 30.2in /  1024.1hPa NE 3.1mph /  5km/h 6mph /  9.7km/h 71% 0in /  0.0mm
00:39 64.2 °F /  17.9 °C 54.7 °F /  12.6 °C 30.2in /  1024.1hPa NE 3.3mph /  5.3km/h 6mph /  9.7km/h 71% 0in /  0.0mm
00:44 64 °F /  17.8 °C 54.5 °F /  12.5 °C 30.2in /  1024.1hPa NE 3.6mph /  5.8km/h 6mph /  9.7km/h 71% 0in /  0.0mm
00:49 64 °F /  17.8 °C 54.3 °F /  12.4 °C 30.2in /  1024.1hPa NE 3.7mph /  6km/h 6.9mph /  11.1km/h 71% 0in /  0.0mm
00:54 64 °F /  17.8 °C 54.7 °F /  12.6 °C 30.2in /  1023.9hPa NE 4mph /  6.5km/h 7mph /  11.3km/h 71.7% 0in /  0.0mm
00:59 63.9 °F /  17.7 °C 54.7 °F /  12.6 °C 30.2in /  1023.9hPa NE 3.9mph /  6.2km/h 6mph /  9.7km/h 72% 0in /  0.0mm
01:04 63.9 °F /  17.7 °C 54.7 °F /  12.6 °C 30.2in /  1023.9hPa NE 3.6mph /  5.8km/h 5.9mph /  9.5km/h 72% 0in /  0.0mm
01:09 63.7 °F /  17.6 °C 54.5 °F /  12.5 °C 30.2in /  1023.9hPa NE 3.6mph /  5.8km/h 6mph /  9.7km/h 72% 0in /  0.0mm
01:14 63.7 °F /  17.6 °C 54.5 °F /  12.5 °C 30.2in /  1023.9hPa NE 3.6mph /  5.8km/h 6mph /  9.7km/h 72% 0in /  0.0mm
01:19 63.7 °F /  17.6 °C 54.7 °F /  12.6 °C 30.2in /  1023.9hPa NE 3.4mph /  5.4km/h 5mph /  8km/h 72.6% 0in /  0.0mm
01:24 63.7 °F /  17.6 °C 54.9 °F /  12.7 °C 30.2in /  1023.8hPa NE 2.9mph /  4.7km/h 5mph /  8km/h 72.9% 0in /  0.0mm
01:29 63.5 °F /  17.5 °C 54.7 °F /  12.6 °C 30.2in /  1023.8hPa NE 2.6mph /  4.2km/h 5mph /  8km/h 73% 0in /  0.0mm
01:34 63.5 °F /  17.5 °C 54.7 °F /  12.6 °C 30.2in /  1023.9hPa NE 2mph /  3.2km/h 4.6mph /  7.4km/h 73% 0in /  0.0mm
01:39 63.3 °F /  17.4 °C 54.5 °F /  12.5 °C 30.2in /  1023.9hPa NE 2mph /  3.2km/h 5mph /  8km/h 73% 0in /  0.0mm
01:44 63.3 °F /  17.4 °C 54.5 °F /  12.5 °C 30.2in /  1023.9hPa NE 2mph /  3.2km/h 3.6mph /  5.8km/h 73% 0in /  0.0mm
01:49 63.3 °F /  17.4 °C 54.5 °F /  12.5 °C 30.2in /  1023.9hPa ENE 1.9mph /  3.1km/h 4.6mph /  7.4km/h 73% 0in /  0.0mm
01:54 63.1 °F /  17.3 °C 54.3 °F /  12.4 °C 30.2in /  1023.9hPa NE 1.8mph /  2.9km/h 5mph /  8km/h 73% 0in /  0.0mm
01:59 63.1 °F /  17.3 °C 54.3 °F /  12.4 °C 30.2in /  1023.9hPa NE 1.6mph /  2.6km/h 4mph /  6.4km/h 73% 0in /  0.0mm
02:04 63 °F /  17.2 °C 54.1 °F /  12.3 °C 30.2in /  1023.9hPa Este 1.4mph /  2.2km/h 4.6mph /  7.4km/h 73% 0in /  0.0mm
02:09 63 °F /  17.2 °C 54.1 °F /  12.3 °C 30.2in /  1023.8hPa Este 1.7mph /  2.8km/h 5mph /  8km/h 73% 0in /  0.0mm
02:14 62.6 °F /  17 °C 53.8 °F /  12.1 °C 30.2in /  1023.8hPa Este 2.4mph /  3.9km/h 4.6mph /  7.4km/h 73% 0in /  0.0mm
02:19 62.4 °F /  16.9 °C 54 °F /  12.2 °C 30.2in /  1023.8hPa Este 2.2mph /  3.5km/h 5mph /  8km/h 74% 0in /  0.0mm
02:24 62.4 °F /  16.9 °C 54 °F /  12.2 °C 30.2in /  1023.7hPa Este 1.8mph /  2.9km/h 2mph /  3.2km/h 74% 0in /  0.0mm
02:29 62.4 °F /  16.9 °C 54 °F /  12.2 °C 30.2in /  1023.7hPa Este 1.1mph /  1.8km/h 2.9mph /  4.7km/h 74% 0in /  0.0mm
02:34 62.4 °F /  16.9 °C 54.1 °F /  12.3 °C 30.2in /  1023.7hPa Calm   3mph /  4.8km/h 74% 0in /  0.0mm
02:39 62.6 °F /  17 °C 54.1 °F /  12.3 °C 30.2in /  1023.6hPa SE 0.5mph /  0.8km/h 3mph /  4.8km/h 74% 0in /  0.0mm
02:44 62.4 °F /  16.9 °C 54 °F /  12.2 °C 30.2in /  1023.6hPa SE 1.4mph /  2.2km/h 2.4mph /  3.9km/h 74% 0in /  0.0mm
02:49 62.4 °F /  16.9 °C 54 °F /  12.2 °C 30.2in /  1023.6hPa SE 0.9mph /  1.4km/h 2mph /  3.2km/h 74% 0in /  0.0mm
02:54 62.4 °F /  16.9 °C 54 °F /  12.2 °C 30.2in /  1023.4hPa Calm     74% 0in /  0.0mm
02:59 62.4 °F /  16.9 °C 54.3 °F /  12.4 °C 30.2in /  1023.4hPa Calm     74.9% 0in /  0.0mm
03:04 62.4 °F /  16.9 °C 54.3 °F /  12.4 °C 30.2in /  1023.4hPa Calm     75% 0in /  0.0mm
03:09 62.4 °F /  16.9 °C 54.3 °F /  12.4 °C 30.2in /  1023.2hPa Calm     74.7% 0in /  0.0mm
03:14 62.4 °F /  16.9 °C 54.1 °F /  12.3 °C 30.2in /  1023.2hPa Calm     74.3% 0in /  0.0mm
03:19 62.2 °F /  16.8 °C 54.1 °F /  12.3 °C 30.2in /  1023.2hPa Calm     74.6% 0in /  0.0mm
03:24 62.2 °F /  16.8 °C 54.3 °F /  12.4 °C 30.2in /  1023.1hPa Calm     75% 0in /  0.0mm
03:29 62.4 °F /  16.9 °C 54.3 °F /  12.4 °C 30.2in /  1023.1hPa Calm     75% 0in /  0.0mm
03:34 62.2 °F /  16.8 °C 54.3 °F /  12.4 °C 30.2in /  1023.1hPa Calm     75% 0in /  0.0mm
03:39 62.2 °F /  16.8 °C 54.3 °F /  12.4 °C 30.2in /  1022.9hPa Calm     75% 0in /  0.0mm
03:44 62.2 °F /  16.8 °C 54.1 °F /  12.3 °C 30.2in /  1022.9hPa Calm   2.9mph /  4.7km/h 75% 0in /  0.0mm
03:49 62.2 °F /  16.8 °C 54.1 °F /  12.3 °C 30.2in /  1022.9hPa Calm   3mph /  4.8km/h 75% 0in /  0.0mm
03:54 62.2 °F /  16.8 °C 54.1 °F /  12.3 °C 30.2in /  1022.8hPa Calm   3.1mph /  5km/h 75% 0in /  0.0mm
03:59 62.1 °F /  16.7 °C 54 °F /  12.2 °C 30.2in /  1022.8hPa SE 0.7mph /  1.2km/h 3.5mph /  5.6km/h 75% 0in /  0.0mm
04:04 61.9 °F /  16.6 °C 54.1 °F /  12.3 °C 30.2in /  1022.8hPa SE 1.8mph /  2.9km/h 3mph /  4.8km/h 75.9% 0in /  0.0mm
04:09 61.9 °F /  16.6 °C 54.1 °F /  12.3 °C 30.2in /  1022.6hPa SE 1.1mph /  1.8km/h 2.3mph /  3.7km/h 76% 0in /  0.0mm
04:14 61.7 °F /  16.5 °C 54.1 °F /  12.3 °C 30.2in /  1022.6hPa Calm   2mph /  3.2km/h 76% 0in /  0.0mm
04:19 61.7 °F /  16.5 °C 54 °F /  12.2 °C 30.2in /  1022.6hPa Calm   3.6mph /  5.8km/h 75.5% 0in /  0.0mm
04:24 61.9 °F /  16.6 °C 53.8 °F /  12.1 °C 30.2in /  1022.5hPa Calm   4.6mph /  7.4km/h 74.8% 0in /  0.0mm
04:29 61.9 °F /  16.6 °C 53.4 °F /  11.9 °C 30.2in /  1022.5hPa SE 1.1mph /  1.7km/h 5mph /  8km/h 74% 0in /  0.0mm
04:34 61.9 °F /  16.6 °C 53.4 °F /  11.9 °C 30.2in /  1022.5hPa SE 2.9mph /  4.7km/h 5.8mph /  9.3km/h 74% 0in /  0.0mm
04:39 61.7 °F /  16.5 °C 53.2 °F /  11.8 °C 30.2in /  1022.4hPa SE 3mph /  4.8km/h 6.2mph /  10km/h 74% 0in /  0.0mm
04:44 61.3 °F /  16.3 °C 53.2 °F /  11.8 °C 30.2in /  1022.4hPa Sur 3.1mph /  5km/h 6.2mph /  10km/h 74.5% 0in /  0.0mm
04:49 61.2 °F /  16.2 °C 53.2 °F /  11.8 °C 30.2in /  1022.4hPa Sur 3.4mph /  5.5km/h 6mph /  9.7km/h 75% 0in /  0.0mm
04:54 61 °F /  16.1 °C 53.4 °F /  11.9 °C 30.2in /  1022.4hPa SSO 4mph /  6.5km/h 6.2mph /  10km/h 75.9% 0in /  0.0mm
04:59 61 °F /  16.1 °C 53.2 °F /  11.8 °C 30.2in /  1022.4hPa SSO 4mph /  6.5km/h 6.9mph /  11.1km/h 76% 0in /  0.0mm
05:04 61 °F /  16.1 °C 53.4 °F /  11.9 °C 30.2in /  1022.4hPa SSO 4mph /  6.5km/h 7mph /  11.3km/h 76% 0in /  0.0mm
05:09 61 °F /  16.1 °C 53.4 °F /  11.9 °C 30.2in /  1022.4hPa SSO 4.1mph /  6.6km/h 6.9mph /  11.1km/h 76% 0in /  0.0mm
05:14 61 °F /  16.1 °C 53.4 °F /  11.9 °C 30.2in /  1022.4hPa SSO 4.3mph /  6.9km/h 7mph /  11.3km/h 76% 0in /  0.0mm
05:19 61 °F /  16.1 °C 53.4 °F /  11.9 °C 30.2in /  1022.4hPa SSO 4.7mph /  7.6km/h 9.2mph /  14.8km/h 76% 0in /  0.0mm
05:24 61 °F /  16.1 °C 53.4 °F /  11.9 °C 30.2in /  1022.3hPa SSO 5.4mph /  8.7km/h 9mph /  14.5km/h 76% 0in /  0.0mm
05:29 61 °F /  16.1 °C 53.4 °F /  11.9 °C 30.2in /  1022.3hPa SO 5.2mph /  8.3km/h 7mph /  11.3km/h 76% 0in /  0.0mm
05:34 61 °F /  16.1 °C 53.4 °F /  11.9 °C 30.2in /  1022.3hPa SO 4.7mph /  7.6km/h 7mph /  11.3km/h 76% 0in /  0.0mm
05:39 61 °F /  16.1 °C 53.4 °F /  11.9 °C 30.2in /  1022.2hPa SO 4.5mph /  7.3km/h 7mph /  11.3km/h 76% 0in /  0.0mm
05:44 61 °F /  16.1 °C 53.4 °F /  11.9 °C 30.2in /  1022.2hPa SO 4.3mph /  6.9km/h 9.2mph /  14.8km/h 76% 0in /  0.0mm
05:49 61 °F /  16.1 °C 53.4 °F /  11.9 °C 30.2in /  1022.2hPa SO 4.5mph /  7.2km/h 9.2mph /  14.8km/h 76% 0in /  0.0mm
05:54 60.8 °F /  16 °C 53.2 °F /  11.8 °C 30.2in /  1022.1hPa SO 4.7mph /  7.6km/h 9mph /  14.5km/h 76% 0in /  0.0mm
05:59 60.6 °F /  15.9 °C 53.1 °F /  11.7 °C 30.2in /  1022.1hPa OSO 4.4mph /  7.1km/h 6.9mph /  11.1km/h 76% 0in /  0.0mm
06:04 60.6 °F /  15.9 °C 53.1 °F /  11.7 °C 30.2in /  1022.1hPa SO 4mph /  6.5km/h 7mph /  11.3km/h 76% 0in /  0.0mm
06:09 60.6 °F /  15.9 °C 52.9 °F /  11.6 °C 30.2in /  1022.1hPa OSO 3.9mph /  6.2km/h 6.2mph /  10km/h 76% 0in /  0.0mm
06:14 60.4 °F /  15.8 °C 52.9 °F /  11.6 °C 30.2in /  1022.1hPa SO 3.6mph /  5.8km/h 6mph /  9.7km/h 76.2% 0in /  0.0mm
06:19 60.4 °F /  15.8 °C 53.2 °F /  11.8 °C 30.2in /  1022.2hPa OSO 3.6mph /  5.8km/h 6mph /  9.7km/h 77% 0in /  0.0mm
06:24 60.4 °F /  15.8 °C 53.2 °F /  11.8 °C 30.2in /  1022.2hPa OSO 3.6mph /  5.8km/h 6mph /  9.7km/h 77% 0in /  0.0mm
06:29 60.4 °F /  15.8 °C 53.1 °F /  11.7 °C 30.2in /  1022.2hPa OSO 3.4mph /  5.4km/h 5.2mph /  8.4km/h 76.7% 0in /  0.0mm
06:34 60.3 °F /  15.7 °C 52.9 °F /  11.6 °C 30.2in /  1022.3hPa OSO 2.9mph /  4.7km/h 5.4mph /  8.7km/h 76.2% 0in /  0.0mm
06:39 60.3 °F /  15.7 °C 52.7 °F /  11.5 °C 30.2in /  1022.3hPa OSO 3.2mph /  5.1km/h 6mph /  9.7km/h 76% 0in /  0.0mm
06:44 60.3 °F /  15.7 °C 52.7 °F /  11.5 °C 30.2in /  1022.3hPa OSO 3.6mph /  5.8km/h 6mph /  9.7km/h 76% 0in /  0.0mm
06:49 60.3 °F /  15.7 °C 52.7 °F /  11.5 °C 30.2in /  1022.5hPa SSO 3.6mph /  5.8km/h 7.4mph /  11.9km/h 76% 0in /  0.0mm
06:54 60.3 °F /  15.7 °C 52.7 °F /  11.5 °C 30.2in /  1022.5hPa SO 3.6mph /  5.8km/h 7.4mph /  11.9km/h 76% 0in /  0.0mm
06:59 60.3 °F /  15.7 °C 52.3 °F /  11.3 °C 30.2in /  1022.5hPa SO 4mph /  6.5km/h 7.4mph /  11.9km/h 75.1% 0in /  0.0mm
07:04 60.3 °F /  15.7 °C 52.3 °F /  11.3 °C 30.2in /  1022.5hPa OSO 4.7mph /  7.6km/h 7mph /  11.3km/h 75% 0in /  0.0mm
07:09 60.3 °F /  15.7 °C 52.3 °F /  11.3 °C 30.2in /  1022.5hPa OSO 4.3mph /  6.9km/h 6.2mph /  10km/h 75% 0in /  0.0mm
07:14 60.3 °F /  15.7 °C 52.3 °F /  11.3 °C 30.2in /  1022.5hPa OSO 3.6mph /  5.8km/h 6.9mph /  11.1km/h 75% 0in /  0.0mm
07:19 60.3 °F /  15.7 °C 52.3 °F /  11.3 °C 30.2in /  1022.7hPa OSO 3.6mph /  5.8km/h 7mph /  11.3km/h 74.9% 0in /  0.0mm
07:24 60.3 °F /  15.7 °C 52.3 °F /  11.3 °C 30.2in /  1022.7hPa OSO 3.6mph /  5.8km/h 5.2mph /  8.4km/h 75% 0in /  0.0mm
07:29 60.4 °F /  15.8 °C 52.5 °F /  11.4 °C 30.2in /  1022.7hPa SO 3.4mph /  5.4km/h 5mph /  8km/h 74.9% 0in /  0.0mm
07:34 60.4 °F /  15.8 °C 52.5 °F /  11.4 °C 30.2in /  1022.7hPa SO 2.9mph /  4.7km/h 5mph /  8km/h 74.7% 0in /  0.0mm
07:39 60.6 °F /  15.9 °C 52.7 °F /  11.5 °C 30.2in /  1022.7hPa OSO 2.9mph /  4.7km/h 5mph /  8km/h 74.9% 0in /  0.0mm
07:44 61 °F /  16.1 °C 52.5 °F /  11.4 °C 30.2in /  1022.7hPa OSO 2.9mph /  4.7km/h 5mph /  8km/h 74% 0in /  0.0mm
07:49 61 °F /  16.1 °C 52.7 °F /  11.5 °C 30.2in /  1022.9hPa OSO 2.7mph /  4.4km/h 5mph /  8km/h 74% 0in /  0.0mm
07:54 61.2 °F /  16.2 °C 52.9 °F /  11.6 °C 30.2in /  1022.9hPa Oeste 2.4mph /  3.9km/h 5.2mph /  8.4km/h 74% 0in /  0.0mm
07:59 61.3 °F /  16.3 °C 52.9 °F /  11.6 °C 30.2in /  1022.9hPa Oeste 2.6mph /  4.2km/h 5.2mph /  8.4km/h 74% 0in /  0.0mm
08:04 61.3 °F /  16.3 °C 52.9 °F /  11.6 °C 30.2in /  1023.0hPa Oeste 2.9mph /  4.7km/h 5mph /  8km/h 74% 0in /  0.0mm
08:09 61.3 °F /  16.3 °C 52.9 °F /  11.6 °C 30.2in /  1023.0hPa SO 3.2mph /  5.1km/h 6.9mph /  11.1km/h 73.7% 0in /  0.0mm
08:14 61.7 °F /  16.5 °C 52.9 °F /  11.6 °C 30.2in /  1023.0hPa SO 3.6mph /  5.8km/h 7mph /  11.3km/h 72.9% 0in /  0.0mm
08:19 61.9 °F /  16.6 °C 52.7 °F /  11.5 °C 30.2in /  1023.0hPa SSO 3.7mph /  6km/h 6.9mph /  11.1km/h 71.7% 0in /  0.0mm
08:24 62.1 °F /  16.7 °C 52.7 °F /  11.5 °C 30.2in /  1022.9hPa SO 4mph /  6.5km/h 7mph /  11.3km/h 71.6% 0in /  0.0mm
08:29 62.1 °F /  16.7 °C 52.5 °F /  11.4 °C 30.2in /  1022.9hPa SO 4mph /  6.5km/h 6mph /  9.7km/h 71% 0in /  0.0mm
08:34 62.2 °F /  16.8 °C 52.5 °F /  11.4 °C 30.2in /  1022.9hPa SSO 4mph /  6.5km/h 6mph /  9.7km/h 70.4% 0in /  0.0mm
08:39 62.6 °F /  17 °C 52.5 °F /  11.4 °C 30.2in /  1022.9hPa SO 3.9mph /  6.2km/h 6.2mph /  10km/h 70% 0in /  0.0mm
08:44 62.8 °F /  17.1 °C 52.7 °F /  11.5 °C 30.2in /  1022.9hPa SO 3.6mph /  5.8km/h 6.4mph /  10.3km/h 69.7% 0in /  0.0mm
08:49 63.1 °F /  17.3 °C 52.7 °F /  11.5 °C 30.2in /  1022.9hPa OSO 3.7mph /  6km/h 7mph /  11.3km/h 69% 0in /  0.0mm
08:54 63.3 °F /  17.4 °C 52.9 °F /  11.6 °C 30.2in /  1022.9hPa OSO 4mph /  6.5km/h 7mph /  11.3km/h 69% 0in /  0.0mm
08:59 63.7 °F /  17.6 °C 53.1 °F /  11.7 °C 30.2in /  1022.9hPa SO 3.7mph /  5.9km/h 7mph /  11.3km/h 68.3% 0in /  0.0mm
09:04 64 °F /  17.8 °C 53.1 °F /  11.7 °C 30.2in /  1022.9hPa OSO 3.1mph /  5km/h 6.2mph /  10km/h 67.1% 0in /  0.0mm
09:09 64.2 °F /  17.9 °C 52.7 °F /  11.5 °C 30.2in /  1022.9hPa OSO 3.5mph /  5.7km/h 8.1mph /  13km/h 66.2% 0in /  0.0mm
09:14 64.2 °F /  17.9 °C 52.7 °F /  11.5 °C 30.2in /  1022.9hPa OSO 4.3mph /  6.9km/h 8.1mph /  13km/h 66.3% 0in /  0.0mm
09:19 64.6 °F /  18.1 °C 52.9 °F /  11.6 °C 30.2in /  1023.0hPa OSO 4.3mph /  6.9km/h 8mph /  12.9km/h 66% 0in /  0.0mm
09:24 64.8 °F /  18.2 °C 53.1 °F /  11.7 °C 30.2in /  1023.0hPa OSO 4.3mph /  6.9km/h 7mph /  11.3km/h 65.9% 0in /  0.0mm
09:29 65.3 °F /  18.5 °C 53.1 °F /  11.7 °C 30.2in /  1023.0hPa Sur 4mph /  6.5km/h 8.1mph /  13km/h 64.5% 0in /  0.0mm
09:34 65.5 °F /  18.6 °C 53.1 °F /  11.7 °C 30.2in /  1023.1hPa SSO 3.6mph /  5.8km/h 8mph /  12.9km/h 64% 0in /  0.0mm
09:39 65.7 °F /  18.7 °C 53.2 °F /  11.8 °C 30.2in /  1023.1hPa Sur 3.7mph /  6km/h 6.9mph /  11.1km/h 64% 0in /  0.0mm
09:44 66 °F /  18.9 °C 53.1 °F /  11.7 °C 30.2in /  1023.1hPa SSO 4mph /  6.5km/h 7mph /  11.3km/h 63.1% 0in /  0.0mm
09:49 66.4 °F /  19.1 °C 53.1 °F /  11.7 °C 30.2in /  1023.2hPa SSO 3.9mph /  6.2km/h 7.4mph /  11.9km/h 62.2% 0in /  0.0mm
09:54 66.6 °F /  19.2 °C 53.1 °F /  11.7 °C 30.2in /  1023.2hPa OSO 3.6mph /  5.8km/h 7mph /  11.3km/h 62% 0in /  0.0mm
09:59 66.6 °F /  19.2 °C 52.9 °F /  11.6 °C 30.2in /  1023.2hPa SO 3.9mph /  6.2km/h 6.9mph /  11.1km/h 61.2% 0in /  0.0mm
10:04 66.7 °F /  19.3 °C 53.2 °F /  11.8 °C 30.2in /  1023.2hPa Sur 4.3mph /  6.9km/h 7mph /  11.3km/h 61.6% 0in /  0.0mm
10:09 67.6 °F /  19.8 °C 53.2 °F /  11.8 °C 30.2in /  1023.2hPa SE 3.4mph /  5.5km/h 5mph /  8km/h 60.2% 0in /  0.0mm
10:14 68.2 °F /  20.1 °C 53.1 °F /  11.7 °C 30.2in /  1023.2hPa ONO 1.8mph /  2.9km/h 5.4mph /  8.7km/h 58.5% 0in /  0.0mm
10:19 68.4 °F /  20.2 °C 52.7 °F /  11.5 °C 30.2in /  1023.2hPa SSO 2.3mph /  3.7km/h 6.9mph /  11.1km/h 57.5% 0in /  0.0mm
10:24 68.5 °F /  20.3 °C 52.5 °F /  11.4 °C 30.2in /  1023.1hPa SSE 3.1mph /  5km/h 7mph /  11.3km/h 56.4% 0in /  0.0mm
10:29 69.3 °F /  20.7 °C 52.2 °F /  11.2 °C 30.2in /  1023.1hPa SSE 2.6mph /  4.2km/h 5mph /  8km/h 54.7% 0in /  0.0mm
10:34 69.8 °F /  21 °C 51.8 °F /  11 °C 30.2in /  1023.1hPa SSO 1.8mph /  2.9km/h 3.5mph /  5.6km/h 52.7% 0in /  0.0mm
10:39 70.3 °F /  21.3 °C 51.4 °F /  10.8 °C 30.2in /  1023.0hPa SSE 1.7mph /  2.7km/h 4.7mph /  7.6km/h 51.2% 0in /  0.0mm
10:44 71.1 °F /  21.7 °C 51.4 °F /  10.8 °C 30.2in /  1023.0hPa NNE 1.4mph /  2.2km/h 5mph /  8km/h 49.9% 0in /  0.0mm
10:49 71.8 °F /  22.1 °C 51.4 °F /  10.8 °C 30.2in /  1023.0hPa NE 1.6mph /  2.5km/h 5mph /  8km/h 48.6% 0in /  0.0mm
10:54 72.3 °F /  22.4 °C 50.9 °F /  10.5 °C 30.2in /  1022.9hPa NNE 1.8mph /  2.9km/h 5.9mph /  9.5km/h 46.8% 0in /  0.0mm
10:59 72.7 °F /  22.6 °C 50.7 °F /  10.4 °C 30.2in /  1022.9hPa North 2.1mph /  3.3km/h 6mph /  9.7km/h 46% 0in /  0.0mm
11:04 72.9 °F /  22.7 °C 50.5 °F /  10.3 °C 30.2in /  1023.0hPa NNE 2.4mph /  3.9km/h 6mph /  9.7km/h 45.7% 0in /  0.0mm
11:09 72.5 °F /  22.5 °C 50.5 °F /  10.3 °C 30.2in /  1023.0hPa NNO 2.6mph /  4.2km/h 6mph /  9.7km/h 46% 0in /  0.0mm
11:14 72.3 °F /  22.4 °C 50.5 °F /  10.3 °C 30.2in /  1023.0hPa NE 3.1mph /  5km/h 9.2mph /  14.8km/h 46.1% 0in /  0.0mm
11:19 72.3 °F /  22.4 °C 50 °F /  10 °C 30.2in /  1023.0hPa NE 3.5mph /  5.7km/h 9mph /  14.5km/h 45.2% 0in /  0.0mm
11:24 72.7 °F /  22.6 °C 49.3 °F /  9.6 °C 30.2in /  1023.0hPa NE 4.3mph /  6.9km/h 8.5mph /  13.7km/h 43.6% 0in /  0.0mm
11:29 73 °F /  22.8 °C 49.6 °F /  9.8 °C 30.2in /  1023.0hPa NE 4.3mph /  6.9km/h 9.2mph /  14.8km/h 43.7% 0in /  0.0mm
11:34 73.2 °F /  22.9 °C 49.3 °F /  9.6 °C 30.2in /  1023.0hPa NE 4.3mph /  6.9km/h 13.8mph /  22.2km/h 42.9% 0in /  0.0mm
11:39 73.2 °F /  22.9 °C 48 °F /  8.9 °C 30.2in /  1022.8hPa NE 5.2mph /  8.4km/h 14.5mph /  23.3km/h 41% 0in /  0.0mm
11:44 73.4 °F /  23 °C 47.1 °F /  8.4 °C 30.2in /  1022.8hPa NE 6.9mph /  11.1km/h 15mph /  24.1km/h 39.5% 0in /  0.0mm
11:49 73.4 °F /  23 °C 48.2 °F /  9 °C 30.2in /  1022.8hPa NE 7.3mph /  11.8km/h 14mph /  22.5km/h 40.7% 0in /  0.0mm
11:54 73.9 °F /  23.3 °C 48 °F /  8.9 °C 30.2in /  1022.8hPa NE 8.1mph /  13km/h 12.7mph /  20.4km/h 40.2% 0in /  0.0mm
11:59 73.8 °F /  23.2 °C 48.2 °F /  9 °C 30.2in /  1022.8hPa NE 8.1mph /  13km/h 13.8mph /  22.2km/h 40.5% 0in /  0.0mm
12:04 73.9 °F /  23.3 °C 48.7 °F /  9.3 °C 30.2in /  1022.9hPa NE 8.1mph /  13km/h 14mph /  22.5km/h 41% 0in /  0.0mm
12:09 74.3 °F /  23.5 °C 48.9 °F /  9.4 °C 30.2in /  1022.9hPa ENE 7.9mph /  12.7km/h 14mph /  22.5km/h 40.7% 0in /  0.0mm
12:14 74.8 °F /  23.8 °C 48.7 °F /  9.3 °C 30.2in /  1022.9hPa ENE 7.6mph /  12.2km/h 15mph /  24.1km/h 39.8% 0in /  0.0mm
12:19 74.7 °F /  23.7 °C 48.7 °F /  9.3 °C 30.2in /  1022.9hPa NNE 7.1mph /  11.4km/h 15mph /  24.1km/h 40% 0in /  0.0mm
12:24 74.7 °F /  23.7 °C 48.9 °F /  9.4 °C 30.2in /  1022.8hPa North 6.2mph /  10km/h 10.4mph /  16.7km/h 40.2% 0in /  0.0mm
12:29 75.2 °F /  24 °C 48.9 °F /  9.4 °C 30.2in /  1022.8hPa NE 5.5mph /  8.9km/h 9mph /  14.5km/h 39.6% 0in /  0.0mm
12:34 75.7 °F /  24.3 °C 48.7 °F /  9.3 °C 30.2in /  1022.8hPa NE 4.3mph /  6.9km/h 10mph /  16.1km/h 38.5% 0in /  0.0mm
12:39 75.9 °F /  24.4 °C 47.1 °F /  8.4 °C 30.2in /  1022.6hPa NE 4.8mph /  7.8km/h 14mph /  22.5km/h 36.2% 0in /  0.0mm
12:44 75.9 °F /  24.4 °C 47.1 °F /  8.4 °C 30.2in /  1022.6hPa NE 5.9mph /  9.5km/h 16.3mph /  26.2km/h 36.2% 0in /  0.0mm
12:49 75.6 °F /  24.2 °C 47.1 °F /  8.4 °C 30.2in /  1022.6hPa NE 6.3mph /  10.1km/h 16mph /  25.7km/h 36.4% 0in /  0.0mm
12:54 75.7 °F /  24.3 °C 47.1 °F /  8.4 °C 30.2in /  1022.5hPa NE 6.9mph /  11.1km/h 13mph /  20.9km/h 36.3% 0in /  0.0mm
12:59 76.1 °F /  24.5 °C 47.3 °F /  8.5 °C 30.2in /  1022.5hPa NE 7.1mph /  11.4km/h 15.2mph /  24.5km/h 36.2% 0in /  0.0mm
13:04 76.3 °F /  24.6 °C 48.2 °F /  9 °C 30.2in /  1022.5hPa Este 7.4mph /  11.9km/h 15.2mph /  24.5km/h 37.1% 0in /  0.0mm
13:09 76.5 °F /  24.7 °C 48.6 °F /  9.2 °C 30.2in /  1022.5hPa ENE 6.8mph /  11km/h 16.1mph /  25.9km/h 37.3% 0in /  0.0mm
13:14 76.6 °F /  24.8 °C 49.1 °F /  9.5 °C 30.2in /  1022.5hPa NE 5.9mph /  9.5km/h 16.1mph /  25.9km/h 37.8% 0in /  0.0mm
13:19 76.6 °F /  24.8 °C 48.6 °F /  9.2 °C 30.2in /  1022.5hPa NNE 6.9mph /  11.1km/h 16mph /  25.7km/h 37% 0in /  0.0mm
13:24 76.6 °F /  24.8 °C 48.6 °F /  9.2 °C 30.2in /  1022.4hPa NE 8.7mph /  14km/h 16.3mph /  26.2km/h 37.3% 0in /  0.0mm
13:29 76.5 °F /  24.7 °C 48.9 °F /  9.4 °C 30.2in /  1022.4hPa NE 8.9mph /  14.3km/h 16mph /  25.7km/h 37.9% 0in /  0.0mm
13:34 76.5 °F /  24.7 °C 48.4 °F /  9.1 °C 30.2in /  1022.4hPa NNE 9.2mph /  14.8km/h 14mph /  22.5km/h 37.4% 0in /  0.0mm
13:39 76.5 °F /  24.7 °C 48 °F /  8.9 °C 30.2in /  1022.3hPa NNE 8.6mph /  13.8km/h 15.9mph /  25.6km/h 36.6% 0in /  0.0mm
13:44 76.5 °F /  24.7 °C 47.5 °F /  8.6 °C 30.2in /  1022.3hPa NE 7.4mph /  11.9km/h 17.3mph /  27.8km/h 35.9% 0in /  0.0mm
13:49 76.5 °F /  24.7 °C 48.4 °F /  9.1 °C 30.2in /  1022.3hPa NE 8.3mph /  13.4km/h 17mph /  27.4km/h 37.3% 0in /  0.0mm
13:54 76.6 °F /  24.8 °C 48.4 °F /  9.1 °C 30.2in /  1022.2hPa NE 10mph /  16.1km/h 16mph /  25.7km/h 37.1% 0in /  0.0mm
13:59 76.6 °F /  24.8 °C 48.6 °F /  9.2 °C 30.2in /  1022.2hPa NE 9.4mph /  15.2km/h 16.3mph /  26.2km/h 37.2% 0in /  0.0mm
14:04 76.5 °F /  24.7 °C 48.6 °F /  9.2 °C 30.2in /  1022.2hPa NE 8.5mph /  13.7km/h 17.3mph /  27.8km/h 37.4% 0in /  0.0mm
14:09 76.5 °F /  24.7 °C 49.1 °F /  9.5 °C 30.2in /  1022.0hPa NE 8.6mph /  13.8km/h 17mph /  27.4km/h 38% 0in /  0.0mm
14:14 76.6 °F /  24.8 °C 49.1 °F /  9.5 °C 30.2in /  1022.0hPa NE 8.7mph /  14km/h 16.1mph /  25.9km/h 38% 0in /  0.0mm
14:19 76.6 °F /  24.8 °C 48.9 °F /  9.4 °C 30.2in /  1022.0hPa NE 9.2mph /  14.8km/h 19mph /  30.6km/h 37.9% 0in /  0.0mm
14:24 76.5 °F /  24.7 °C 49.3 °F /  9.6 °C 30.2in /  1022.0hPa NE 10mph /  16.1km/h 19mph /  30.6km/h 38.4% 0in /  0.0mm
14:29 76.6 °F /  24.8 °C 49.8 °F /  9.9 °C 30.2in /  1022.0hPa ENE 9.7mph /  15.6km/h 16.1mph /  25.9km/h 38.8% 0in /  0.0mm
14:34 76.8 °F /  24.9 °C 50 °F /  10 °C 30.2in /  1022.0hPa ENE 9.2mph /  14.8km/h 20.8mph /  33.5km/h 38.9% 0in /  0.0mm
14:39 76.8 °F /  24.9 °C 50 °F /  10 °C 30.2in /  1021.9hPa ENE 9mph /  14.5km/h 21mph /  33.8km/h 39% 0in /  0.0mm
14:44 76.8 °F /  24.9 °C 50.2 °F /  10.1 °C 30.2in /  1021.9hPa NE 8.7mph /  14km/h 20mph /  32.2km/h 39.1% 0in /  0.0mm
14:49 76.6 °F /  24.8 °C 49.8 °F /  9.9 °C 30.2in /  1021.9hPa ENE 9.2mph /  14.8km/h 20mph /  32.2km/h 39.1% 0in /  0.0mm
14:54 77 °F /  25 °C 50.9 °F /  10.5 °C 30.2in /  1021.7hPa NE 10.2mph /  16.4km/h 16.1mph /  25.9km/h 40.1% 0in /  0.0mm
14:59 76.8 °F /  24.9 °C 51.3 °F /  10.7 °C 30.2in /  1021.7hPa NE 9.6mph /  15.5km/h 19.7mph /  31.7km/h 40.8% 0in /  0.0mm
15:04 77 °F /  25 °C 51.3 °F /  10.7 °C 30.2in /  1021.7hPa NE 8.7mph /  14km/h 20mph /  32.2km/h 40.5% 0in /  0.0mm
15:09 77 °F /  25 °C 50.9 °F /  10.5 °C 30.2in /  1021.7hPa NE 9.2mph /  14.8km/h 20mph /  32.2km/h 40% 0in /  0.0mm
15:14 77 °F /  25 °C 50.2 °F /  10.1 °C 30.2in /  1021.7hPa NE 10mph /  16.1km/h 18.5mph /  29.8km/h 39.1% 0in /  0.0mm
15:19 76.8 °F /  24.9 °C 50 °F /  10 °C 30.2in /  1021.7hPa NE 10.4mph /  16.8km/h 19mph /  30.6km/h 39% 0in /  0.0mm
15:24 77 °F /  25 °C 50.5 °F /  10.3 °C 30.2in /  1021.5hPa NE 11.2mph /  18km/h 19mph /  30.6km/h 39.6% 0in /  0.0mm
15:29 76.6 °F /  24.8 °C 49.8 °F /  9.9 °C 30.2in /  1021.5hPa NE 11.6mph /  18.7km/h 18.4mph /  29.6km/h 39% 0in /  0.0mm
15:34 76.6 °F /  24.8 °C 50 °F /  10 °C 30.2in /  1021.5hPa NE 12.3mph /  19.8km/h 18mph /  29km/h 39.3% 0in /  0.0mm
15:39 77.4 °F /  25.2 °C 50.2 °F /  10.1 °C 30.2in /  1021.5hPa NE 11mph /  17.7km/h 18mph /  29km/h 38.6% 0in /  0.0mm
15:44 77.9 °F /  25.5 °C 48.9 °F /  9.4 °C 30.2in /  1021.5hPa ENE 8.7mph /  14km/h 16mph /  25.7km/h 36.1% 0in /  0.0mm
15:49 77.5 °F /  25.3 °C 49.3 °F /  9.6 °C 30.2in /  1021.5hPa NE 8.5mph /  13.7km/h 16.1mph /  25.9km/h 37.1% 0in /  0.0mm
15:54 77.2 °F /  25.1 °C 49.5 °F /  9.7 °C 30.2in /  1021.4hPa NE 8.1mph /  13km/h 18.4mph /  29.6km/h 38.1% 0in /  0.0mm
15:59 77.2 °F /  25.1 °C 50 °F /  10 °C 30.2in /  1021.4hPa NE 8.9mph /  14.3km/h 18mph /  29km/h 38.5% 0in /  0.0mm
16:04 77.4 °F /  25.2 °C 49.8 °F /  9.9 °C 30.2in /  1021.4hPa NE 10.2mph /  16.4km/h 15mph /  24.1km/h 38.2% 0in /  0.0mm
16:09 77 °F /  25 °C 50.2 °F /  10.1 °C 30.2in /  1021.3hPa NE 10mph /  16.1km/h 21.9mph /  35.2km/h 39.1% 0in /  0.0mm
16:14 76.8 °F /  24.9 °C 50 °F /  10 °C 30.2in /  1021.3hPa NE 9.7mph /  15.6km/h 22mph /  35.4km/h 39% 0in /  0.0mm
16:19 77.4 °F /  25.2 °C 50.4 °F /  10.2 °C 30.2in /  1021.3hPa NE 9.7mph /  15.6km/h 18.1mph /  29.1km/h 38.8% 0in /  0.0mm
16:24 76.8 °F /  24.9 °C 49.8 °F /  9.9 °C 30.2in /  1021.2hPa NE 9.7mph /  15.6km/h 22.3mph /  35.9km/h 38.7% 0in /  0.0mm
16:29 76.5 °F /  24.7 °C 49.8 °F /  9.9 °C 30.2in /  1021.2hPa NNE 10.9mph /  17.6km/h 22mph /  35.4km/h 39.1% 0in /  0.0mm
16:34 76.5 °F /  24.7 °C 49.8 °F /  9.9 °C 30.2in /  1021.2hPa NE 13mph /  20.9km/h 20mph /  32.2km/h 39% 0in /  0.0mm
16:39 76.6 °F /  24.8 °C 49.6 °F /  9.8 °C 30.2in /  1021.2hPa ENE 11.9mph /  19.1km/h 20mph /  32.2km/h 38.7% 0in /  0.0mm
16:44 76.8 °F /  24.9 °C 49.8 °F /  9.9 °C 30.2in /  1021.2hPa NE 10mph /  16.1km/h 17.5mph /  28.2km/h 38.6% 0in /  0.0mm
16:49 76.8 °F /  24.9 °C 49.3 °F /  9.6 °C 30.2in /  1021.2hPa NE 9.9mph /  15.9km/h 17mph /  27.4km/h 38% 0in /  0.0mm
16:54 76.5 °F /  24.7 °C 49.1 °F /  9.5 °C 30.2in /  1021.1hPa NE 9.7mph /  15.6km/h 18.5mph /  29.8km/h 38.3% 0in /  0.0mm
16:59 76.3 °F /  24.6 °C 49.3 °F /  9.6 °C 30.2in /  1021.1hPa ENE 10.1mph /  16.2km/h 19mph /  30.6km/h 38.7% 0in /  0.0mm
17:04 76.3 °F /  24.6 °C 49.1 °F /  9.5 °C 30.2in /  1021.1hPa NE 10.7mph /  17.2km/h 18.4mph /  29.6km/h 38.6% 0in /  0.0mm
17:09 76.1 °F /  24.5 °C 48.7 °F /  9.3 °C 30.2in /  1021.0hPa NE 10.4mph /  16.8km/h 18mph /  29km/h 38.2% 0in /  0.0mm
17:14 75.7 °F /  24.3 °C 48.7 °F /  9.3 °C 30.2in /  1021.0hPa NE 10mph /  16.1km/h 17.3mph /  27.8km/h 38.5% 0in /  0.0mm
17:19 75.9 °F /  24.4 °C 48.6 °F /  9.2 °C 30.2in /  1021.0hPa ENE 10.1mph /  16.2km/h 17mph /  27.4km/h 38% 0in /  0.0mm
17:24 76.3 °F /  24.6 °C 48.6 °F /  9.2 °C 30.2in /  1021.0hPa ENE 10.2mph /  16.4km/h 23.7mph /  38.1km/h 37.8% 0in /  0.0mm
17:29 75.9 °F /  24.4 °C 48.2 °F /  9 °C 30.2in /  1021.0hPa ENE 10.4mph /  16.7km/h 24.2mph /  38.9km/h 37.5% 0in /  0.0mm
17:34 75.7 °F /  24.3 °C 48.4 °F /  9.1 °C 30.2in /  1021.0hPa NE 10.7mph /  17.2km/h 24mph /  38.6km/h 38% 0in /  0.0mm
17:39 75.6 °F /  24.2 °C 48.2 °F /  9 °C 30.2in /  1020.9hPa NE 10.5mph /  16.9km/h 19mph /  30.6km/h 38% 0in /  0.0mm
17:44 75.7 °F /  24.3 °C 48.2 °F /  9 °C 30.2in /  1020.9hPa NE 10.2mph /  16.4km/h 19mph /  30.6km/h 37.9% 0in /  0.0mm
17:49 75.7 °F /  24.3 °C 48.4 °F /  9.1 °C 30.2in /  1020.9hPa NE 10.2mph /  16.4km/h 23mph /  37km/h 37.9% 0in /  0.0mm
17:54 75.6 °F /  24.2 °C 48 °F /  8.9 °C 30.2in /  1020.9hPa NE 10.2mph /  16.4km/h 23mph /  37km/h 37.9% 0in /  0.0mm
17:59 75.6 °F /  24.2 °C 48.9 °F /  9.4 °C 30.2in /  1020.9hPa NE 10mph /  16.1km/h 16mph /  25.7km/h 39.1% 0in /  0.0mm
18:04 75.6 °F /  24.2 °C 49.5 °F /  9.7 °C 30.2in /  1020.9hPa ENE 9.7mph /  15.6km/h 15mph /  24.1km/h 40% 0in /  0.0mm
18:09 75.7 °F /  24.3 °C 49.8 °F /  9.9 °C 30.1in /  1020.8hPa ENE 9.3mph /  15km/h 16.1mph /  25.9km/h 40.1% 0in /  0.0mm
18:14 75.7 °F /  24.3 °C 50 °F /  10 °C 30.1in /  1020.8hPa NE 8.7mph /  14km/h 17.5mph /  28.2km/h 40.4% 0in /  0.0mm
18:19 75 °F /  23.9 °C 49.8 °F /  9.9 °C 30.1in /  1020.8hPa NE 9.4mph /  15.2km/h 17mph /  27.4km/h 41% 0in /  0.0mm
18:24 75 °F /  23.9 °C 49.8 °F /  9.9 °C 30.1in /  1020.7hPa NE 10.7mph /  17.2km/h 17.5mph /  28.2km/h 40.9% 0in /  0.0mm
18:29 75 °F /  23.9 °C 50.4 °F /  10.2 °C 30.1in /  1020.7hPa NE 10.5mph /  16.9km/h 17mph /  27.4km/h 41.9% 0in /  0.0mm
18:34 74.8 °F /  23.8 °C 49.6 °F /  9.8 °C 30.1in /  1020.8hPa NE 10.2mph /  16.4km/h 17.3mph /  27.8km/h 41% 0in /  0.0mm
18:39 74.8 °F /  23.8 °C 50 °F /  10 °C 30.1in /  1020.8hPa NE 10.2mph /  16.4km/h 20.7mph /  33.3km/h 41.7% 0in /  0.0mm
18:44 75 °F /  23.9 °C 49.6 °F /  9.8 °C 30.1in /  1020.8hPa NE 10.2mph /  16.4km/h 21mph /  33.8km/h 41% 0in /  0.0mm
18:49 74.8 °F /  23.8 °C 50 °F /  10 °C 30.1in /  1020.8hPa NE 10.4mph /  16.7km/h 16.1mph /  25.9km/h 41.7% 0in /  0.0mm
18:54 74.7 °F /  23.7 °C 50 °F /  10 °C 30.1in /  1020.6hPa NE 10.7mph /  17.2km/h 16mph /  25.7km/h 42% 0in /  0.0mm
18:59 74.8 °F /  23.8 °C 50 °F /  10 °C 30.1in /  1020.6hPa ENE 9.9mph /  16km/h 15mph /  24.1km/h 41.5% 0in /  0.0mm
19:04 75 °F /  23.9 °C 50.2 °F /  10.1 °C 30.1in /  1020.6hPa ENE 8.7mph /  14km/h 14.5mph /  23.3km/h 41.7% 0in /  0.0mm
19:09 74.8 °F /  23.8 °C 50.5 °F /  10.3 °C 30.1in /  1020.6hPa NE 8.3mph /  13.3km/h 16.8mph /  27km/h 42.4% 0in /  0.0mm
19:14 74.7 °F /  23.7 °C 50.7 °F /  10.4 °C 30.1in /  1020.6hPa NE 7.6mph /  12.2km/h 17.8mph /  28.6km/h 43% 0in /  0.0mm
19:19 74.7 °F /  23.7 °C 51.1 °F /  10.6 °C 30.1in /  1020.6hPa NE 8.2mph /  13.2km/h 18mph /  29km/h 43.7% 0in /  0.0mm
19:24 74.7 °F /  23.7 °C 51.3 °F /  10.7 °C 30.1in /  1020.6hPa NE 9.2mph /  14.8km/h 13mph /  20.9km/h 44% 0in /  0.0mm
19:29 74.7 °F /  23.7 °C 51.3 °F /  10.7 °C 30.1in /  1020.6hPa NE 8.5mph /  13.7km/h 15mph /  24.1km/h 44% 0in /  0.0mm
19:34 74.7 °F /  23.7 °C 50.9 °F /  10.5 °C 30.1in /  1020.6hPa NE 7.4mph /  11.9km/h 15mph /  24.1km/h 43.3% 0in /  0.0mm
19:39 74.3 °F /  23.5 °C 50.4 °F /  10.2 °C 30.1in /  1020.6hPa NE 7.6mph /  12.3km/h 15mph /  24.1km/h 42.9% 0in /  0.0mm
19:44 73.9 °F /  23.3 °C 50.4 °F /  10.2 °C 30.1in /  1020.6hPa NE 8.1mph /  13km/h 14mph /  22.5km/h 43.6% 0in /  0.0mm
19:49 73.8 °F /  23.2 °C 50.5 °F /  10.3 °C 30.1in /  1020.7hPa NE 8.5mph /  13.7km/h 15mph /  24.1km/h 44% 0in /  0.0mm
19:54 73.6 °F /  23.1 °C 49.8 °F /  9.9 °C 30.1in /  1020.7hPa NE 9.2mph /  14.8km/h 15.2mph /  24.5km/h 43.2% 0in /  0.0mm
19:59 73.4 °F /  23 °C 49.8 °F /  9.9 °C 30.1in /  1020.7hPa NE 9.5mph /  15.3km/h 16.1mph /  25.9km/h 43.6% 0in /  0.0mm
20:04 73.2 °F /  22.9 °C 49.8 °F /  9.9 °C 30.1in /  1020.7hPa NE 10mph /  16.1km/h 16.3mph /  26.2km/h 43.8% 0in /  0.0mm
20:09 73 °F /  22.8 °C 49.6 °F /  9.8 °C 30.1in /  1020.6hPa NE 9.4mph /  15.2km/h 16mph /  25.7km/h 43.6% 0in /  0.0mm
20:14 72.9 °F /  22.7 °C 49.1 °F /  9.5 °C 30.1in /  1020.6hPa NE 8.5mph /  13.7km/h 15mph /  24.1km/h 43.1% 0in /  0.0mm
20:19 72.9 °F /  22.7 °C 49.5 °F /  9.7 °C 30.1in /  1020.6hPa NE 8.3mph /  13.4km/h 14mph /  22.5km/h 43.6% 0in /  0.0mm
20:24 72.9 °F /  22.7 °C 49.3 °F /  9.6 °C 30.1in /  1020.6hPa NE 8.1mph /  13km/h 14.5mph /  23.3km/h 43.3% 0in /  0.0mm
20:29 72.7 °F /  22.6 °C 49.3 °F /  9.6 °C 30.1in /  1020.6hPa NE 8.1mph /  13km/h 15.2mph /  24.5km/h 43.6% 0in /  0.0mm
20:34 72.3 °F /  22.4 °C 48.6 °F /  9.2 °C 30.1in /  1020.6hPa NE 8.1mph /  13km/h 15mph /  24.1km/h 43% 0in /  0.0mm
20:39 72.1 °F /  22.3 °C 48.7 °F /  9.3 °C 30.1in /  1020.6hPa NE 7.9mph /  12.7km/h 15mph /  24.1km/h 43.7% 0in /  0.0mm
20:44 72 °F /  22.2 °C 48.9 °F /  9.4 °C 30.1in /  1020.6hPa NE 7.6mph /  12.2km/h 13mph /  20.9km/h 44% 0in /  0.0mm
20:49 72 °F /  22.2 °C 48.6 °F /  9.2 °C 30.1in /  1020.7hPa ENE 7.3mph /  11.8km/h 13mph /  20.9km/h 43.5% 0in /  0.0mm
20:54 71.8 °F /  22.1 °C 48 °F /  8.9 °C 30.1in /  1020.7hPa NE 6.9mph /  11.1km/h 12mph /  19.3km/h 43% 0in /  0.0mm
20:59 71.6 °F /  22 °C 47.8 °F /  8.8 °C 30.1in /  1020.7hPa NE 6.9mph /  11.1km/h 12.3mph /  19.8km/h 43% 0in /  0.0mm
21:04 71.4 °F /  21.9 °C 47.8 °F /  8.8 °C 30.1in /  1020.7hPa NE 6.9mph /  11.1km/h 13mph /  20.9km/h 43.2% 0in /  0.0mm
21:09 71.2 °F /  21.8 °C 48.2 °F /  9 °C 30.1in /  1020.7hPa NE 7.1mph /  11.5km/h 12mph /  19.3km/h 44% 0in /  0.0mm
21:14 71.2 °F /  21.8 °C 48.2 °F /  9 °C 30.1in /  1020.7hPa NE 7.6mph /  12.2km/h 12mph /  19.3km/h 44.1% 0in /  0.0mm
21:19 71.1 °F /  21.7 °C 48.4 °F /  9.1 °C 30.1in /  1020.8hPa NE 6.7mph /  10.8km/h 9.2mph /  14.8km/h 44.7% 0in /  0.0mm
21:24 70.9 °F /  21.6 °C 48.6 °F /  9.2 °C 30.1in /  1020.8hPa NE 5.2mph /  8.4km/h 9mph /  14.5km/h 45% 0in /  0.0mm
21:29 70.7 °F /  21.5 °C 48.7 °F /  9.3 °C 30.1in /  1020.8hPa NE 5mph /  8.1km/h 9.7mph /  15.6km/h 45.9% 0in /  0.0mm
21:34 70.3 °F /  21.3 °C 48.6 °F /  9.2 °C 30.2in /  1020.9hPa NE 4.7mph /  7.6km/h 10mph /  16.1km/h 46% 0in /  0.0mm
21:39 70.2 °F /  21.2 °C 48.4 °F /  9.1 °C 30.2in /  1020.9hPa NE 5mph /  8km/h 8.5mph /  13.7km/h 46% 0in /  0.0mm
21:44 70 °F /  21.1 °C 48.4 °F /  9.1 °C 30.2in /  1020.9hPa NE 5.4mph /  8.7km/h 9.7mph /  15.6km/h 46.3% 0in /  0.0mm
21:49 69.6 °F /  20.9 °C 48.6 °F /  9.2 °C 30.2in /  1021.0hPa NE 5.4mph /  8.7km/h 10mph /  16.1km/h 47% 0in /  0.0mm
21:54 69.6 °F /  20.9 °C 48.9 °F /  9.4 °C 30.2in /  1021.0hPa NE 5.4mph /  8.7km/h 9mph /  14.5km/h 47.6% 0in /  0.0mm
21:59 69.4 °F /  20.8 °C 49.1 °F /  9.5 °C 30.2in /  1021.0hPa NE 5.3mph /  8.6km/h 8.1mph /  13km/h 48.3% 0in /  0.0mm
22:04 69.3 °F /  20.7 °C 49.3 °F /  9.6 °C 30.2in /  1021.1hPa NE 5.2mph /  8.4km/h 8mph /  12.9km/h 49.1% 0in /  0.0mm
22:09 69.1 °F /  20.6 °C 49.6 °F /  9.8 °C 30.2in /  1021.1hPa NE 4.8mph /  7.7km/h 7mph /  11.3km/h 50% 0in /  0.0mm
22:14 68.9 °F /  20.5 °C 50 °F /  10 °C 30.2in /  1021.1hPa NE 4mph /  6.5km/h 7.4mph /  11.9km/h 50.8% 0in /  0.0mm
22:19 68.7 °F /  20.4 °C 50.4 °F /  10.2 °C 30.2in /  1021.3hPa NE 4.1mph /  6.6km/h 8.1mph /  13km/h 52% 0in /  0.0mm
22:24 68.5 °F /  20.3 °C 50.7 °F /  10.4 °C 30.2in /  1021.3hPa NE 4.3mph /  6.9km/h 8mph /  12.9km/h 53% 0in /  0.0mm
22:29 68.4 °F /  20.2 °C 51.1 °F /  10.6 °C 30.2in /  1021.3hPa NE 4mph /  6.5km/h 7mph /  11.3km/h 54% 0in /  0.0mm
22:34 68.4 °F /  20.2 °C 51.4 °F /  10.8 °C 30.2in /  1021.3hPa NE 3.6mph /  5.8km/h 6.2mph /  10km/h 54.9% 0in /  0.0mm
22:39 68.2 °F /  20.1 °C 51.8 °F /  11 °C 30.2in /  1021.3hPa NE 3.6mph /  5.8km/h 6.2mph /  10km/h 55.7% 0in /  0.0mm
22:44 68 °F /  20 °C 51.8 °F /  11 °C 30.2in /  1021.3hPa NE 3.6mph /  5.8km/h 6mph /  9.7km/h 56% 0in /  0.0mm
22:49 68 °F /  20 °C 51.6 °F /  10.9 °C 30.2in /  1021.6hPa NE 3.6mph /  5.8km/h 6mph /  9.7km/h 56% 0in /  0.0mm
22:54 67.8 °F /  19.9 °C 51.8 °F /  11 °C 30.2in /  1021.6hPa NE 3.6mph /  5.8km/h 6mph /  9.7km/h 56.7% 0in /  0.0mm
22:59 67.8 °F /  19.9 °C 52 °F /  11.1 °C 30.2in /  1021.6hPa NE 3.4mph /  5.4km/h 5mph /  8km/h 57% 0in /  0.0mm
23:04 67.8 °F /  19.9 °C 52.3 °F /  11.3 °C 30.2in /  1021.7hPa Este 2.9mph /  4.7km/h 5mph /  8km/h 57.6% 0in /  0.0mm
23:09 67.6 °F /  19.8 °C 52.3 °F /  11.3 °C 30.2in /  1021.7hPa NE 2.9mph /  4.7km/h 5mph /  8km/h 58% 0in /  0.0mm
23:14 67.6 °F /  19.8 °C 52.5 °F /  11.4 °C 30.2in /  1021.7hPa NE 2.9mph /  4.7km/h 6.2mph /  10km/h 58.6% 0in /  0.0mm
23:19 67.5 °F /  19.7 °C 52.7 °F /  11.5 °C 30.2in /  1021.7hPa ENE 3mph /  4.8km/h 6mph /  9.7km/h 59% 0in /  0.0mm
23:24 67.5 °F /  19.7 °C 53.1 °F /  11.7 °C 30.2in /  1021.7hPa ENE 3.1mph /  5km/h 5mph /  8km/h 60% 0in /  0.0mm
23:29 67.5 °F /  19.7 °C 52.7 °F /  11.5 °C 30.2in /  1021.7hPa ENE 2.9mph /  4.6km/h 5.2mph /  8.4km/h 59.2% 0in /  0.0mm
23:34 67.5 °F /  19.7 °C 52.5 °F /  11.4 °C 30.2in /  1021.8hPa NE 2.4mph /  3.9km/h 5.4mph /  8.7km/h 59% 0in /  0.0mm
23:39 67.3 °F /  19.6 °C 52.5 °F /  11.4 °C 30.2in /  1021.8hPa NE 2.6mph /  4.2km/h 7.4mph /  11.9km/h 59% 0in /  0.0mm
23:44 67.3 °F /  19.6 °C 52.7 °F /  11.5 °C 30.2in /  1021.8hPa Este 2.9mph /  4.7km/h 7mph /  11.3km/h 59.6% 0in /  0.0mm
23:49 67.1 °F /  19.5 °C 52.7 °F /  11.5 °C 30.2in /  1021.8hPa ESE 2.5mph /  4.1km/h 5mph /  8km/h 60% 0in /  0.0mm
23:54 66.9 °F /  19.4 °C 52.5 °F /  11.4 °C 30.2in /  1021.8hPa ESE 2mph /  3.2km/h 5mph /  8km/h 60% 0in /  0.0mm
23:59 66.9 °F /  19.4 °C 52.7 °F /  11.5 °C 30.2in /  1021.8hPa ESE 1.7mph /  2.8km/h 3mph /  4.8km/h 60.5% 0in /  0.0mm
Murcia-Puente Tocinos, España
Compliments of Weather Underground - 3 mb

La estación de MeteoMurcia.com, publica sus datos en los siguientes proyectos:

Weather Underground PWS IMURCIAP2 Meteoclimatic www.awekas.at

W3Counter
Web Analytics